createdAt,value
2023-04-05T00:01:12.571Z,83.88
2023-04-05T00:03:40.255Z,83.49
2023-04-05T00:06:07.849Z,83.36
2023-04-05T00:08:34.343Z,83.60
2023-04-05T00:11:01.953Z,83.67
2023-04-05T00:13:28.509Z,84.02
2023-04-05T00:15:58.191Z,84.35
2023-04-05T00:18:25.654Z,84.69
2023-04-05T00:20:53.040Z,84.78
2023-04-05T00:23:21.348Z,84.39
2023-04-05T00:25:48.192Z,84.83
2023-04-05T00:28:14.715Z,84.94
2023-04-05T00:30:41.411Z,84.50
2023-04-05T00:33:08.091Z,84.56
2023-04-05T00:35:34.636Z,84.39
2023-04-05T00:38:01.263Z,84.72
2023-04-05T00:40:27.812Z,84.23
2023-04-05T00:42:54.309Z,84.60
2023-04-05T00:45:20.989Z,84.33
2023-04-05T00:47:47.832Z,84.21
2023-04-05T00:50:15.972Z,83.94
2023-04-05T00:52:43.986Z,83.93
2023-04-05T00:55:11.207Z,83.94
2023-04-05T00:57:39.184Z,83.86
2023-04-05T01:00:09.498Z,83.72
2023-04-05T01:02:45.981Z,83.71
2023-04-05T01:05:37.112Z,83.74
2023-04-05T01:08:17.675Z,83.92
2023-04-05T01:10:58.967Z,83.43
2023-04-05T01:13:25.994Z,83.71
2023-04-05T01:15:52.599Z,83.86
2023-04-05T01:18:19.359Z,84.59
2023-04-05T01:20:56.197Z,84.79
2023-04-05T01:23:42.557Z,84.69
2023-04-05T01:26:15.056Z,84.64
2023-04-05T01:29:09.739Z,84.16
2023-04-05T01:31:53.666Z,84.37
2023-04-05T01:34:36.858Z,84.13
2023-04-05T01:37:07.509Z,84.18
2023-04-05T01:39:36.572Z,83.84
2023-04-05T01:42:04.372Z,84.24
2023-04-05T01:44:31.248Z,83.69
2023-04-05T01:46:57.710Z,83.66
2023-04-05T01:49:24.667Z,83.33
2023-04-05T01:51:51.257Z,83.31
2023-04-05T01:54:17.733Z,83.40
2023-04-05T01:56:44.622Z,83.43
2023-04-05T01:59:11.159Z,83.35
2023-04-05T02:01:37.654Z,83.16
2023-04-05T02:04:04.178Z,83.01
2023-04-05T02:06:31.992Z,82.94
2023-04-05T02:08:58.529Z,83.45
2023-04-05T02:11:25.057Z,83.68
2023-04-05T02:13:51.561Z,83.74
2023-04-05T02:16:18.473Z,83.58
2023-04-05T02:18:50.780Z,83.50
2023-04-05T02:21:17.293Z,83.60
2023-04-05T02:23:44.073Z,83.31
2023-04-05T02:26:10.801Z,83.22
2023-04-05T02:28:37.258Z,82.65
2023-04-05T02:31:09.282Z,82.54
2023-04-05T02:33:35.916Z,82.77
2023-04-05T02:36:06.634Z,83.51
2023-04-05T02:38:33.857Z,83.27
2023-04-05T02:41:00.448Z,83.45
2023-04-05T02:43:27.634Z,83.33
2023-04-05T02:45:54.203Z,83.10
2023-04-05T02:48:20.945Z,82.88
2023-04-05T02:50:49.930Z,83.15
2023-04-05T02:53:19.470Z,83.25
2023-04-05T02:55:56.865Z,84.49
2023-04-05T02:58:24.322Z,84.87
2023-04-05T03:00:52.933Z,85.47
2023-04-05T03:03:22.892Z,85.92
2023-04-05T03:05:59.144Z,86.26
2023-04-05T03:08:25.630Z,86.58
2023-04-05T03:10:52.153Z,86.84
2023-04-05T03:13:18.586Z,86.12
2023-04-05T03:15:45.113Z,86.47
2023-04-05T03:18:11.609Z,86.51
2023-04-05T03:20:41.458Z,86.10
2023-04-05T03:23:08.986Z,86.20
2023-04-05T03:25:37.182Z,86.43
2023-04-05T03:28:08.591Z,86.08
2023-04-05T03:30:36.982Z,85.79
2023-04-05T03:33:03.945Z,86.01
2023-04-05T03:35:30.958Z,86.38
2023-04-05T03:37:57.532Z,86.83
2023-04-05T03:40:24.682Z,86.89
2023-04-05T03:42:51.554Z,87.31
2023-04-05T03:45:23.102Z,87.24
2023-04-05T03:47:51.031Z,86.90
2023-04-05T03:50:17.615Z,86.56
2023-04-05T03:52:47.163Z,86.56
2023-04-05T03:55:14.148Z,86.54
2023-04-05T03:57:41.640Z,86.32
2023-04-05T04:00:14.994Z,86.29
2023-04-05T04:02:46.751Z,86.22
2023-04-05T04:05:14.375Z,87.02
2023-04-05T04:07:41.788Z,86.50
2023-04-05T04:10:10.508Z,86.59
2023-04-05T04:12:37.969Z,86.58
2023-04-05T04:15:05.020Z,86.86
2023-04-05T04:17:39.609Z,86.64
2023-04-05T04:20:13.208Z,86.05
2023-04-05T04:22:40.558Z,85.85
2023-04-05T04:25:12.628Z,86.34
2023-04-05T04:27:40.266Z,86.52
2023-04-05T04:30:12.477Z,85.82
2023-04-05T04:32:55.416Z,85.94
2023-04-05T04:35:28.097Z,86.75
2023-04-05T04:38:00.174Z,86.60
2023-04-05T04:40:41.190Z,86.63
2023-04-05T04:43:18.895Z,86.15
2023-04-05T04:45:51.987Z,86.59
2023-04-05T04:48:18.780Z,86.04
2023-04-05T04:50:46.690Z,85.55
2023-04-05T04:53:13.785Z,85.57
2023-04-05T04:55:43.305Z,85.50
2023-04-05T04:58:11.791Z,85.62
2023-04-05T05:00:40.686Z,85.59
2023-04-05T05:03:08.556Z,85.40
2023-04-05T05:05:35.151Z,85.12
2023-04-05T05:08:01.866Z,84.81
2023-04-05T05:10:28.332Z,85.02
2023-04-05T05:12:54.899Z,85.16
2023-04-05T05:15:21.359Z,84.80
2023-04-05T05:17:53.858Z,84.91
2023-04-05T05:20:21.369Z,85.65
2023-04-05T05:22:48.477Z,85.91
2023-04-05T05:25:17.712Z,85.45
2023-04-05T05:27:44.254Z,85.33
2023-04-05T05:30:11.485Z,84.80
2023-04-05T05:32:38.125Z,84.68
2023-04-05T05:35:05.176Z,84.26
2023-04-05T05:37:33.161Z,83.40
2023-04-05T05:39:59.953Z,83.97
2023-04-05T05:42:27.361Z,83.77
2023-04-05T05:44:56.401Z,83.39
2023-04-05T05:47:23.097Z,83.89
2023-04-05T05:49:49.825Z,84.67
2023-04-05T05:52:16.959Z,84.85
2023-04-05T05:54:43.502Z,85.11
2023-04-05T05:57:09.985Z,86.04
2023-04-05T05:59:36.662Z,86.16
2023-04-05T06:02:06.117Z,86.33
2023-04-05T06:04:34.151Z,85.88
2023-04-05T06:07:01.726Z,85.40
2023-04-05T06:09:29.063Z,84.77
2023-04-05T06:11:57.292Z,84.48
2023-04-05T06:14:25.237Z,83.85
2023-04-05T06:16:54.309Z,83.26
2023-04-05T06:19:20.887Z,84.00
2023-04-05T06:21:47.597Z,85.06
2023-04-05T06:24:14.090Z,86.09
2023-04-05T06:26:41.210Z,85.77
2023-04-05T06:29:07.744Z,84.98
2023-04-05T06:31:36.060Z,84.38
2023-04-05T06:34:02.718Z,83.87
2023-04-05T06:36:33.872Z,83.17
2023-04-05T06:39:00.469Z,82.88
2023-04-05T06:41:27.824Z,82.71
2023-04-05T06:43:57.158Z,85.47
2023-04-05T06:46:24.075Z,89.78
2023-04-05T06:48:52.250Z,89.77
2023-04-05T06:51:21.545Z,89.71
2023-04-05T06:53:48.160Z,89.51
2023-04-05T06:56:14.636Z,89.10
2023-04-05T06:58:41.325Z,88.01
2023-04-05T07:01:07.859Z,87.26
2023-04-05T07:03:34.447Z,86.76
2023-04-05T07:06:04.312Z,86.84
2023-04-05T07:08:32.932Z,86.87
2023-04-05T07:10:59.720Z,86.87
2023-04-05T07:13:26.545Z,86.94
2023-04-05T07:16:00.494Z,86.43
2023-04-05T07:18:27.318Z,87.43
2023-04-05T07:21:00.041Z,87.45
2023-04-05T07:23:29.443Z,87.34
2023-04-05T07:26:00.606Z,87.65
2023-04-05T07:28:27.196Z,87.88
2023-04-05T07:30:53.873Z,86.56
2023-04-05T07:33:20.938Z,86.42
2023-04-05T07:35:53.366Z,85.98
2023-04-05T07:38:21.247Z,86.45
2023-04-05T07:40:51.389Z,85.65
2023-04-05T07:43:20.721Z,84.64
2023-04-05T07:45:47.294Z,83.86
2023-04-05T07:48:13.741Z,84.78
2023-04-05T07:50:41.176Z,85.48
2023-04-05T07:53:08.252Z,85.92
2023-04-05T07:55:38.203Z,86.07
2023-04-05T07:58:04.845Z,83.84
2023-04-05T08:00:31.491Z,83.13
2023-04-05T08:03:01.798Z,81.51
2023-04-05T08:05:28.900Z,81.45
2023-04-05T08:07:57.907Z,80.04
2023-04-05T08:10:24.992Z,78.13
2023-04-05T08:12:51.437Z,78.34
2023-04-05T08:15:17.929Z,78.76
2023-04-05T08:17:44.936Z,77.85
2023-04-05T08:20:11.894Z,77.94
2023-04-05T08:22:38.368Z,78.55
2023-04-05T08:25:08.231Z,77.06
2023-04-05T08:27:34.778Z,74.91
2023-04-05T08:30:01.363Z,73.21
2023-04-05T08:32:27.980Z,72.24
2023-04-05T08:34:54.458Z,73.13
2023-04-05T08:37:21.168Z,72.15
2023-04-05T08:39:47.629Z,71.22
2023-04-05T08:42:18.982Z,69.89
2023-04-05T08:44:46.926Z,70.02
2023-04-05T08:47:18.485Z,69.68
2023-04-05T08:49:45.901Z,68.26
2023-04-05T08:52:12.759Z,68.77
2023-04-05T08:54:39.312Z,68.71
2023-04-05T08:57:07.378Z,66.98
2023-04-05T08:59:37.592Z,66.68
2023-04-05T09:02:10.947Z,65.88
2023-04-05T09:04:44.816Z,66.56
2023-04-05T09:07:14.022Z,64.98
2023-04-05T09:09:48.934Z,64.93
2023-04-05T09:12:15.885Z,61.41
2023-04-05T09:14:43.388Z,61.07
2023-04-05T09:17:10.507Z,60.43
2023-04-05T09:19:37.278Z,59.21
2023-04-05T09:22:05.732Z,58.78
2023-04-05T09:24:37.019Z,55.96
2023-04-05T09:27:06.240Z,54.27
2023-04-05T09:29:35.344Z,58.40
2023-04-05T09:32:05.600Z,56.21
2023-04-05T09:34:33.253Z,57.77
2023-04-05T09:37:00.919Z,55.73
2023-04-05T09:39:32.591Z,53.97
2023-04-05T09:42:26.082Z,54.76
2023-04-05T09:45:05.033Z,54.51
2023-04-05T09:47:34.657Z,54.01
2023-04-05T09:50:04.414Z,54.18
2023-04-05T09:52:32.276Z,53.47
2023-04-05T09:55:04.299Z,54.57
2023-04-05T09:57:34.015Z,54.78
2023-04-05T10:00:00.785Z,53.29
2023-04-05T10:02:37.170Z,53.88
2023-04-05T10:05:08.483Z,54.04
2023-04-05T10:07:35.754Z,55.82
2023-04-05T10:10:02.306Z,54.37
2023-04-05T10:12:29.368Z,53.13
2023-04-05T10:14:57.172Z,51.73
2023-04-05T10:17:25.921Z,53.80
2023-04-05T10:20:20.979Z,52.71
2023-04-05T10:23:11.053Z,51.70
2023-04-05T10:25:47.777Z,52.04
2023-04-05T10:28:52.915Z,54.27
2023-04-05T10:31:36.369Z,52.72
2023-04-05T10:34:06.863Z,52.50
2023-04-05T10:36:49.570Z,50.04
2023-04-05T10:39:36.655Z,49.85
2023-04-05T10:42:22.206Z,49.58
2023-04-05T10:44:59.969Z,48.48
2023-04-05T10:47:28.704Z,48.51
2023-04-05T10:50:00.257Z,50.54
2023-04-05T10:52:28.615Z,50.57
2023-04-05T10:54:57.268Z,50.06
2023-04-05T10:57:24.971Z,49.49
2023-04-05T10:59:52.354Z,50.15
2023-04-05T11:02:19.535Z,50.21
2023-04-05T11:04:46.163Z,50.18
2023-04-05T11:07:16.375Z,49.95
2023-04-05T11:10:14.321Z,49.95
2023-04-05T11:12:46.767Z,48.36
2023-04-05T11:15:28.537Z,48.94
2023-04-05T11:18:09.012Z,48.89
2023-04-05T11:20:51.861Z,49.81
2023-04-05T11:23:23.085Z,49.97
2023-04-05T11:25:59.717Z,49.47
2023-04-05T11:28:44.382Z,49.90
2023-04-05T11:31:19.001Z,49.03
2023-04-05T11:33:52.167Z,50.49
2023-04-05T11:36:41.879Z,49.43
2023-04-05T11:39:21.346Z,48.63
2023-04-05T11:42:01.574Z,48.23
2023-04-05T11:44:39.982Z,48.50
2023-04-05T11:47:06.922Z,47.12
2023-04-05T11:49:34.030Z,47.62
2023-04-05T11:52:10.805Z,47.49
2023-04-05T11:54:37.368Z,45.04
2023-04-05T11:57:04.133Z,45.89
2023-04-05T11:59:33.153Z,47.18
2023-04-05T12:02:08.147Z,47.67
2023-04-05T12:04:36.153Z,47.65
2023-04-05T12:07:14.031Z,47.37
2023-04-05T12:09:59.752Z,47.28
2023-04-05T12:12:26.782Z,48.07
2023-04-05T12:14:59.394Z,48.00
2023-04-05T12:17:44.035Z,49.79
2023-04-05T12:20:12.909Z,51.10
2023-04-05T12:22:41.542Z,48.21
2023-04-05T12:25:09.175Z,47.12
2023-04-05T12:27:36.062Z,47.54
2023-04-05T12:30:17.166Z,45.31
2023-04-05T12:32:52.376Z,48.49
2023-04-05T12:35:31.972Z,48.28
2023-04-05T12:38:05.912Z,49.19
2023-04-05T12:40:34.998Z,48.20
2023-04-05T12:43:05.898Z,48.19
2023-04-05T12:45:40.346Z,49.38
2023-04-05T12:48:13.184Z,49.30
2023-04-05T12:50:47.249Z,49.17
2023-04-05T12:53:21.901Z,46.76
2023-04-05T12:55:53.151Z,46.40
2023-04-05T12:58:24.077Z,47.49
2023-04-05T13:00:50.578Z,50.80
2023-04-05T13:03:21.115Z,47.95
2023-04-05T13:05:50.970Z,47.31
2023-04-05T13:08:20.920Z,47.77
2023-04-05T13:10:48.550Z,48.89
2023-04-05T13:13:18.267Z,47.67
2023-04-05T13:15:45.991Z,48.91
2023-04-05T13:18:14.899Z,46.25
2023-04-05T13:20:45.533Z,46.59
2023-04-05T13:23:13.099Z,47.83
2023-04-05T13:25:41.488Z,48.95
2023-04-05T13:28:08.356Z,47.51
2023-04-05T13:30:35.093Z,48.05
2023-04-05T13:33:01.716Z,47.61
2023-04-05T13:35:28.338Z,46.36
2023-04-05T13:37:54.926Z,46.67
2023-04-05T13:40:21.415Z,46.77
2023-04-05T13:42:49.063Z,47.28
2023-04-05T13:45:15.806Z,49.76
2023-04-05T13:47:42.295Z,49.27
2023-04-05T13:50:09.082Z,48.93
2023-04-05T13:52:35.602Z,51.61
2023-04-05T13:55:03.746Z,51.55
2023-04-05T13:57:30.851Z,49.98
2023-04-05T13:59:57.439Z,50.13
2023-04-05T14:02:26.065Z,50.08
2023-04-05T14:04:56.323Z,50.02
2023-04-05T14:07:24.128Z,50.28
2023-04-05T14:09:50.882Z,49.67
2023-04-05T14:12:18.256Z,48.87
2023-04-05T14:14:44.958Z,49.02
2023-04-05T14:17:14.327Z,49.25
2023-04-05T14:19:40.970Z,50.78
2023-04-05T14:22:07.838Z,51.02
2023-04-05T14:24:34.654Z,50.30
2023-04-05T14:27:01.258Z,49.95
2023-04-05T14:29:27.763Z,50.00
2023-04-05T14:31:56.116Z,50.04
2023-04-05T14:34:22.914Z,50.01
2023-04-05T14:36:49.763Z,50.78
2023-04-05T14:39:16.565Z,51.05
2023-04-05T14:41:44.055Z,50.60
2023-04-05T14:44:10.591Z,50.90
2023-04-05T14:46:37.258Z,50.03
2023-04-05T14:49:06.716Z,46.85
2023-04-05T14:51:33.286Z,49.47
2023-04-05T14:53:59.924Z,49.81
2023-04-05T14:56:26.472Z,49.13
2023-04-05T14:58:53.106Z,49.10
2023-04-05T15:01:19.701Z,49.42
2023-04-05T15:03:48.312Z,50.09
2023-04-05T15:06:16.319Z,50.00
2023-04-05T15:08:42.845Z,49.28
2023-04-05T15:11:09.402Z,51.91
2023-04-05T15:13:35.983Z,52.08
2023-04-05T15:16:05.831Z,51.10
2023-04-05T15:18:32.355Z,50.93
2023-04-05T15:20:58.907Z,51.77
2023-04-05T15:23:25.536Z,52.12
2023-04-05T15:25:52.032Z,51.16
2023-04-05T15:28:18.536Z,52.08
2023-04-05T15:30:45.817Z,51.85
2023-04-05T15:33:14.952Z,52.70
2023-04-05T15:35:41.515Z,52.40
2023-04-05T15:38:10.947Z,54.18
2023-04-05T15:40:38.209Z,53.52
2023-04-05T15:43:04.851Z,52.90
2023-04-05T15:45:31.849Z,52.06
2023-04-05T15:47:58.497Z,51.76
2023-04-05T15:50:25.118Z,51.75
2023-04-05T15:52:51.657Z,51.90
2023-04-05T15:55:18.358Z,51.88
2023-04-05T15:57:44.944Z,52.49
2023-04-05T16:00:12.159Z,51.67
2023-04-05T16:02:38.884Z,51.55
2023-04-05T16:05:05.909Z,52.22
2023-04-05T16:07:32.990Z,51.69
2023-04-05T16:09:59.556Z,51.68
2023-04-05T16:12:26.368Z,51.81
2023-04-05T16:14:52.857Z,51.84
2023-04-05T16:17:20.573Z,50.95
2023-04-05T16:19:47.257Z,51.34
2023-04-05T16:22:13.785Z,52.58
2023-04-05T16:24:40.272Z,53.25
2023-04-05T16:27:06.884Z,53.07
2023-04-05T16:29:33.439Z,51.98
2023-04-05T16:31:59.967Z,51.74
2023-04-05T16:34:26.590Z,51.57
2023-04-05T16:36:53.118Z,52.65
2023-04-05T16:39:19.717Z,52.48
2023-04-05T16:41:46.233Z,52.31
2023-04-05T16:44:12.888Z,53.75
2023-04-05T16:46:39.877Z,54.25
2023-04-05T16:49:06.500Z,54.15
2023-04-05T16:51:34.650Z,53.80
2023-04-05T16:54:01.303Z,53.50
2023-04-05T16:56:27.854Z,53.75
2023-04-05T16:58:55.197Z,53.08
2023-04-05T17:01:24.543Z,54.26
2023-04-05T17:03:51.297Z,55.04
2023-04-05T17:06:17.822Z,55.56
2023-04-05T17:08:44.352Z,55.73
2023-04-05T17:11:10.908Z,55.62
2023-04-05T17:13:40.589Z,54.97
2023-04-05T17:16:07.768Z,55.66
2023-04-05T17:18:34.335Z,56.25
2023-04-05T17:21:00.850Z,56.34
2023-04-05T17:23:28.049Z,56.33
2023-04-05T17:25:54.599Z,56.08
2023-04-05T17:28:21.207Z,55.42
2023-04-05T17:30:47.892Z,55.53
2023-04-05T17:33:14.638Z,55.58
2023-04-05T17:35:41.182Z,55.57
2023-04-05T17:38:07.835Z,55.33
2023-04-05T17:40:34.451Z,56.54
2023-04-05T17:43:01.185Z,57.49
2023-04-05T17:45:28.285Z,57.52
2023-04-05T17:47:54.927Z,58.15
2023-04-05T17:50:23.286Z,59.15
2023-04-05T17:52:51.264Z,60.26
2023-04-05T17:55:17.831Z,60.43
2023-04-05T17:57:44.346Z,60.21
2023-04-05T18:00:11.582Z,60.63
2023-04-05T18:02:40.672Z,61.86
2023-04-05T18:05:07.846Z,61.32
2023-04-05T18:07:38.204Z,61.25
2023-04-05T18:10:06.279Z,61.34
2023-04-05T18:12:33.319Z,61.67
2023-04-05T18:14:59.997Z,61.52
2023-04-05T18:17:27.985Z,61.52
2023-04-05T18:19:54.871Z,61.23
2023-04-05T18:22:21.552Z,61.64
2023-04-05T18:24:48.106Z,61.90
2023-04-05T18:27:14.649Z,61.75
2023-04-05T18:29:41.367Z,61.17
2023-04-05T18:32:08.307Z,61.85
2023-04-05T18:34:35.144Z,61.39
2023-04-05T18:37:01.938Z,61.99
2023-04-05T18:39:28.507Z,62.35
2023-04-05T18:41:55.105Z,62.71
2023-04-05T18:44:21.686Z,63.06
2023-04-05T18:46:49.646Z,64.26
2023-04-05T18:49:18.257Z,64.80
2023-04-05T18:51:45.593Z,64.94
2023-04-05T18:54:13.761Z,66.76
2023-04-05T18:56:40.554Z,66.36
2023-04-05T18:59:07.544Z,65.88
2023-04-05T19:01:34.405Z,65.54
2023-04-05T19:04:00.901Z,65.71
2023-04-05T19:06:28.073Z,66.70
2023-04-05T19:08:54.587Z,66.40
2023-04-05T19:11:22.054Z,66.03
2023-04-05T19:13:48.623Z,66.91
2023-04-05T19:16:20.299Z,66.75
2023-04-05T19:18:46.814Z,67.02
2023-04-05T19:21:13.795Z,67.25
2023-04-05T19:23:40.339Z,68.38
2023-04-05T19:26:06.963Z,69.19
2023-04-05T19:28:33.519Z,69.62
2023-04-05T19:31:00.117Z,69.76
2023-04-05T19:33:29.581Z,70.29
2023-04-05T19:35:57.924Z,69.93
2023-04-05T19:38:27.939Z,69.81
2023-04-05T19:40:54.514Z,70.00
2023-04-05T19:43:21.286Z,70.41
2023-04-05T19:45:52.236Z,70.53
2023-04-05T19:48:38.617Z,70.67
2023-04-05T19:51:07.587Z,70.48
2023-04-05T19:53:39.974Z,71.22
2023-04-05T19:56:13.826Z,71.81
2023-04-05T19:58:43.923Z,72.02
2023-04-05T20:01:13.870Z,71.59
2023-04-05T20:03:41.954Z,71.90
2023-04-05T20:06:09.404Z,72.00
2023-04-05T20:08:46.684Z,72.39
2023-04-05T20:11:22.124Z,72.75
2023-04-05T20:13:55.651Z,72.46
2023-04-05T20:16:33.590Z,72.56
2023-04-05T20:19:14.389Z,72.48
2023-04-05T20:21:42.131Z,72.54
2023-04-05T20:24:10.979Z,72.44
2023-04-05T20:26:40.053Z,72.42
2023-04-05T20:29:08.378Z,72.50
2023-04-05T20:31:39.688Z,72.19
2023-04-05T20:34:29.956Z,72.38
2023-04-05T20:37:05.392Z,72.59
2023-04-05T20:39:34.357Z,73.08
2023-04-05T20:42:04.889Z,72.82
2023-04-05T20:44:34.945Z,72.55
2023-04-05T20:47:01.579Z,72.50
2023-04-05T20:49:31.404Z,72.22
2023-04-05T20:51:58.068Z,72.25
2023-04-05T20:54:25.031Z,72.45
2023-04-05T20:56:55.059Z,72.25
2023-04-05T20:59:22.977Z,72.50
2023-04-05T21:01:49.680Z,72.34
2023-04-05T21:04:18.245Z,72.33
2023-04-05T21:06:44.827Z,72.45
2023-04-05T21:09:14.133Z,72.43
2023-04-05T21:11:40.797Z,72.66
2023-04-05T21:14:07.327Z,72.51
2023-04-05T21:16:36.668Z,72.62
2023-04-05T21:19:07.894Z,72.19
2023-04-05T21:21:34.686Z,71.80
2023-04-05T21:24:01.213Z,71.60
2023-04-05T21:26:27.812Z,70.69
2023-04-05T21:28:54.360Z,71.35
2023-04-05T21:31:20.937Z,71.63
2023-04-05T21:33:50.116Z,71.30
2023-04-05T21:36:16.658Z,72.09
2023-04-05T21:38:45.921Z,71.75
2023-04-05T21:41:12.512Z,72.16
2023-04-05T21:43:39.041Z,71.95
2023-04-05T21:46:05.606Z,72.10
2023-04-05T21:48:32.136Z,72.17
2023-04-05T21:50:58.676Z,72.50
2023-04-05T21:53:25.569Z,72.82
2023-04-05T21:55:53.112Z,72.64
2023-04-05T21:58:21.940Z,72.38
2023-04-05T22:01:03.857Z,72.50
2023-04-05T22:03:33.773Z,72.52
2023-04-05T22:06:04.721Z,72.76
2023-04-05T22:12:12.112Z,72.88
2023-04-05T22:14:38.648Z,72.52
2023-04-05T22:17:05.248Z,72.46
2023-04-05T22:19:37.481Z,72.41
2023-04-05T22:22:04.040Z,72.52
2023-04-05T22:24:30.708Z,72.41
2023-04-05T22:26:59.578Z,72.67
2023-04-05T22:29:26.228Z,72.07
2023-04-05T22:31:52.790Z,72.48
2023-04-05T22:34:19.414Z,72.10
2023-04-05T22:36:46.090Z,72.25
2023-04-05T22:39:12.749Z,71.48
2023-04-05T22:41:39.274Z,71.28
2023-04-05T22:44:06.350Z,71.75
2023-04-05T22:46:33.074Z,71.55
2023-04-05T22:49:03.060Z,70.41
2023-04-05T22:51:29.946Z,70.21
2023-04-05T22:53:56.673Z,69.51
2023-04-05T22:56:24.081Z,69.73
2023-04-05T22:58:51.506Z,69.20
2023-04-05T23:01:18.711Z,68.27
2023-04-05T23:03:45.588Z,68.52
2023-04-05T23:06:14.172Z,67.98
2023-04-05T23:08:46.673Z,67.99
2023-04-05T23:11:13.239Z,68.22
2023-04-05T23:13:42.399Z,67.99
2023-04-05T23:16:09.046Z,68.21
2023-04-05T23:18:35.779Z,67.90
2023-04-05T23:21:05.703Z,68.36
2023-04-05T23:23:32.286Z,68.90
2023-04-05T23:25:58.805Z,68.61
2023-04-05T23:28:25.484Z,68.85
2023-04-05T23:30:52.054Z,68.34
2023-04-05T23:33:25.786Z,68.89
2023-04-05T23:35:52.340Z,68.57
2023-04-05T23:38:22.089Z,68.71
2023-04-05T23:40:48.581Z,69.47
2023-04-05T23:43:17.801Z,69.01
2023-04-05T23:45:44.353Z,69.21
2023-04-05T23:48:10.977Z,68.93
2023-04-05T23:50:37.555Z,68.68
2023-04-05T23:53:07.834Z,69.15
2023-04-05T23:55:40.058Z,69.69
2023-04-05T23:58:08.157Z,70.10
